| time (UTC) | temp C | wind direction | speed KPH | gust KPH | rain 1hr cm | rain 24hr cm | rain mn cm | humidity % | barometer mb |
| 20260906035422 | 27 | 278 | 8.0 | 16.1 | 0.00 | 0.00 | 0.00 | 57 | 1019.4 |
| 20260906034921 | 27 | 302 | 8.0 | 12.9 | 0.00 | 0.00 | 0.00 | 56 | 1019.4 |
| 20260906034422 | 27 | 297 | 8.0 | 14.5 | 0.00 | 0.00 | 0.00 | 55 | 1019.4 |
| 20260906033423 | 27 | 325 | 6.4 | 11.3 | 0.00 | 0.00 | 0.00 | 56 | 1019.6 |
| 20260906032904 | 27 | 305 | 4.8 | 9.7 | 0.00 | 0.00 | 0.00 | 56 | 1019.6 |
| 20260906032404 | 27 | 330 | 3.2 | 9.7 | 0.00 | 0.00 | 0.00 | 57 | 1019.6 |
| 20260906031904 | 27 | 295 | 3.2 | 8.0 | 0.00 | 0.00 | 0.00 | 58 | 1019.6 |
| 20260906031404 | 27 | 312 | 3.2 | 4.8 | 0.00 | 0.00 | 0.00 | 60 | 1019.6 |
| 20260906030904 | 27 | 262 | 4.8 | 12.9 | 0.00 | 0.00 | 0.00 | 61 | 1019.7 |
| 20260906025920 | 27 | 279 | 9.7 | 14.5 | 0.00 | 0.00 | 0.00 | 62 | 1019.7 |
| 20260906025421 | 27 | 284 | 9.7 | 14.5 | 0.00 | 0.00 | 0.00 | 62 | 1019.7 |
| 20260906024921 | 27 | 262 | 4.8 | 8.0 | 0.00 | 0.00 | 0.00 | 63 | 1019.7 |
| 20260906024421 | 27 | 256 | 8.0 | 11.3 | 0.00 | 0.00 | 0.00 | 63 | 1019.7 |
| 20260906023921 | 27 | 285 | 1.6 | 8.0 | 0.00 | 0.00 | 0.00 | 64 | 1019.7 |
| 20260906023421 | 27 | 272 | 4.8 | 11.3 | 0.00 | 0.00 | 0.00 | 64 | 1019.7 |
| 20260906022404 | 27 | 289 | 4.8 | 9.7 | 0.00 | 0.00 | 0.00 | 65 | 1019.8 |
| 20260906021904 | 27 | 288 | 6.4 | 11.3 | 0.00 | 0.00 | 0.00 | 66 | 1019.8 |
| 20260906021404 | 27 | 283 | 4.8 | 14.5 | 0.00 | 0.00 | 0.00 | 66 | 1019.8 |
| 20260906020904 | 27 | 286 | 8.0 | 12.9 | 0.00 | 0.00 | 0.00 | 67 | 1019.8 |
| 20260906015922 | 27 | 306 | 8.0 | 12.9 | 0.00 | 0.00 | 0.00 | 68 | 1019.8 |
| 20260906014923 | 27 | 304 | 3.2 | 9.7 | 0.00 | 0.00 | 0.00 | 72 | 1019.9 |
| 20260906013423 | 27 | 255 | 1.6 | 4.8 | 0.00 | 0.00 | 0.00 | 74 | 1020.0 |
| 20260906012904 | 27 | 221 | 1.6 | 4.8 | 0.00 | 0.00 | 0.00 | 74 | 1020.0 |
| 20260906012404 | 27 | 266 | 0.0 | 3.2 | 0.00 | 0.00 | 0.00 | 75 | 1020.1 |
| 20260906011904 | 27 | 251 | 0.0 | 1.6 | 0.00 | 0.00 | 0.00 | 76 | 1020.1 |
| 20260906011404 | 27 | 214 | 0.0 | 0.0 | 0.00 | 0.00 | 0.00 | 76 | 1020.1 |
| 20260906010904 | 27 | 209 | 1.6 | 4.8 | 0.00 | 0.00 | 0.00 | 76 | 1020.1 |
| 20260906010421 | 27 | 248 | 0.0 | 3.2 | 0.00 | 0.00 | 0.00 | 77 | 1020.2 |
| 20260906005921 | 27 | 224 | 1.6 | 3.2 | 0.00 | 0.00 | 0.00 | 77 | 1020.2 |
| 20260906005422 | 27 | 224 | 0.0 | 1.6 | 0.00 | 0.00 | 0.00 | 77 | 1020.2 |
| 20260906004922 | 27 | 287 | 3.2 | 4.8 | 0.00 | 0.00 | 0.00 | 77 | 1020.2 |
| 20260906004422 | 27 | 275 | 3.2 | 9.7 | 0.00 | 0.00 | 0.00 | 77 | 1020.2 |
| 20260906003922 | 27 | 278 | 3.2 | 9.7 | 0.00 | 0.00 | 0.00 | 77 | 1020.2 |
| 20260906003422 | 27 | 279 | 4.8 | 11.3 | 0.00 | 0.00 | 0.00 | 77 | 1020.2 |
| 20260906002903 | 27 | 308 | 8.0 | 9.7 | 0.00 | 0.00 | 0.00 | 77 | 1020.3 |
| 20260906002404 | 27 | 280 | 4.8 | 9.7 | 0.00 | 0.00 | 0.00 | 76 | 1020.3 |
| 20260906001404 | 27 | 277 | 8.0 | 12.9 | 0.00 | 0.00 | 0.00 | 76 | 1020.5 |
| 20260906000904 | 27 | 280 | 6.4 | 12.9 | 0.00 | 0.00 | 0.00 | 75 | 1020.5 |
| 20260906000420 | 27 | 286 | 8.0 | 12.9 | 0.00 | 0.00 | 0.00 | 75 | 1020.5 |
| 20260905235919 | 27 | 290 | 8.0 | 11.3 | 0.00 | 0.00 | 0.00 | 74 | 1020.6 |
| 20260905234420 | 27 | 311 | 4.8 | 9.7 | 0.00 | 0.00 | 0.00 | 75 | 1020.7 |
| 20260905233921 | 27 | 290 | 4.8 | 9.7 | 0.00 | 0.00 | 0.00 | 75 | 1020.7 |
| 20260905233420 | 27 | 289 | 6.4 | 11.3 | 0.00 | 0.00 | 0.00 | 75 | 1020.7 |
| 20260905232903 | 27 | 292 | 4.8 | 11.3 | 0.00 | 0.00 | 0.00 | 75 | 1020.7 |
| 20260905231904 | 27 | 310 | 4.8 | 8.0 | 0.00 | 0.00 | 0.00 | 76 | 1020.8 |
| 20260905230403 | 27 | 275 | 9.7 | 12.9 | 0.00 | 0.00 | 0.00 | 78 | 1020.9 |
| 20260905225903 | 27 | 280 | 4.8 | 8.0 | 0.00 | 0.00 | 0.00 | 79 | 1020.9 |
| 20260905225403 | 27 | 325 | 3.2 | 4.8 | 0.00 | 0.00 | 0.00 | 81 | 1020.9 |
| 20260905224902 | 27 | 321 | 4.8 | 9.7 | 0.00 | 0.00 | 0.00 | 81 | 1020.9 |
| 20260905224402 | 27 | 299 | 4.8 | 8.0 | 0.00 | 0.00 | 0.00 | 81 | 1020.9 |
| 20260905223903 | 28 | 295 | 1.6 | 4.8 | 0.00 | 0.00 | 0.00 | 81 | 1020.9 |
| 20260905222403 | 28 | 266 | 1.6 | 3.2 | 0.00 | 0.00 | 0.00 | 82 | 1020.8 |
| 20260905221905 | 27 | 281 | 1.6 | 4.8 | 0.00 | 0.00 | 0.00 | 82 | 1020.9 |
| 20260905221404 | 27 | 359 | 0.0 | 3.2 | 0.00 | 0.00 | 0.00 | 81 | 1020.8 |
| 20260905215427 | 27 | 359 | 0.0 | 3.2 | 0.00 | 0.00 | 0.00 | 84 | 1020.9 |
| 20260905214927 | 27 | 188 | 0.0 | 3.2 | 0.00 | 0.00 | 0.00 | 85 | 1021.0 |
| 20260905214427 | 27 | 188 | 0.0 | 1.6 | 0.00 | 0.00 | 0.00 | 85 | 1021.0 |
| 20260905213927 | 27 | 188 | 0.0 | 1.6 | 0.00 | 0.00 | 0.00 | 86 | 1021.0 |
| 20260905213428 | 27 | 188 | 0.0 | 0.0 | 0.00 | 0.00 | 0.00 | 86 | 1021.0 |
| 20260905212903 | 27 | 188 | 0.0 | 0.0 | 0.00 | 0.00 | 0.00 | 86 | 1021.1 |
| 20260905212404 | 27 | 188 | 0.0 | 0.0 | 0.00 | 0.00 | 0.00 | 87 | 1021.1 |
| 20260905211904 | 27 | 188 | 0.0 | 0.0 | 0.00 | 0.00 | 0.00 | 87 | 1021.1 |
| 20260905211404 | 27 | 188 | 0.0 | 0.0 | 0.00 | 0.00 | 0.00 | 88 | 1021.1 |
| 20260905210904 | 27 | 188 | 0.0 | 1.6 | 0.00 | 0.00 | 0.00 | 88 | 1021.2 |
| 20260905210422 | 27 | 188 | 0.0 | 3.2 | 0.00 | 0.00 | 0.00 | 88 | 1021.2 |
| 20260905205922 | 27 | 160 | 0.0 | 0.0 | 0.00 | 0.00 | 0.00 | 89 | 1021.2 |
| 20260905205423 | 27 | 160 | 0.0 | 0.0 | 0.00 | 0.00 | 0.00 | 89 | 1021.2 |
| 20260905204422 | 27 | 160 | 1.6 | 4.8 | 0.00 | 0.00 | 0.00 | 89 | 1021.2 |
| 20260905203923 | 27 | 124 | 3.2 | 4.8 | 0.00 | 0.00 | 0.00 | 89 | 1021.2 |
| 20260905202904 | 27 | 119 | 1.6 | 4.8 | 0.00 | 0.00 | 0.00 | 89 | 1021.3 |
| 20260905201904 | 27 | 120 | 1.6 | 4.8 | 0.00 | 0.00 | 0.00 | 89 | 1021.2 |
| 20260905201404 | 27 | 120 | 1.6 | 3.2 | 0.00 | 0.00 | 0.00 | 89 | 1021.2 |
| 20260905200905 | 27 | 120 | 1.6 | 3.2 | 0.00 | 0.00 | 0.00 | 89 | 1021.1 |
| 20260905200425 | 27 | 120 | 3.2 | 4.8 | 0.00 | 0.00 | 0.00 | 89 | 1021.1 |
| 20260905195925 | 27 | 136 | 3.2 | 4.8 | 0.00 | 0.00 | 0.00 | 89 | 1021.1 |
| 20260905195426 | 27 | 92 | 1.6 | 3.2 | 0.00 | 0.00 | 0.00 | 89 | 1021.1 |
| 20260905194925 | 27 | 137 | 1.6 | 4.8 | 0.00 | 0.00 | 0.00 | 89 | 1021.0 |
| 20260905194426 | 27 | 121 | 1.6 | 4.8 | 0.00 | 0.00 | 0.00 | 89 | 1021.0 |
| 20260905193925 | 27 | 74 | 1.6 | 4.8 | 0.00 | 0.00 | 0.00 | 89 | 1021.1 |
| 20260905193426 | 27 | 74 | 3.2 | 4.8 | 0.00 | 0.00 | 0.00 | 89 | 1021.2 |
| 20260905192903 | 27 | 131 | 1.6 | 4.8 | 0.00 | 0.00 | 0.00 | 89 | 1021.1 |
| 20260905191904 | 27 | 59 | 1.6 | 4.8 | 0.00 | 0.00 | 0.00 | 89 | 1021.1 |
| 20260905191404 | 27 | 91 | 3.2 | 4.8 | 0.00 | 0.00 | 0.00 | 89 | 1021.1 |
| 20260905190904 | 27 | 127 | 3.2 | 4.8 | 0.00 | 0.00 | 0.00 | 89 | 1021.1 |
| 20260905190423 | 27 | 118 | 4.8 | 4.8 | 0.00 | 0.00 | 0.00 | 89 | 1021.1 |
| 20260905185923 | 27 | 62 | 3.2 | 4.8 | 0.00 | 0.00 | 0.00 | 88 | 1021.1 |
| 20260905184924 | 27 | 146 | 3.2 | 4.8 | 0.00 | 0.00 | 0.00 | 88 | 1021.0 |
| 20260905184424 | 27 | 125 | 1.6 | 4.8 | 0.00 | 0.00 | 0.00 | 88 | 1021.1 |
| 20260905183924 | 27 | 121 | 4.8 | 8.0 | 0.00 | 0.00 | 0.00 | 88 | 1021.0 |
| 20260905183425 | 27 | 140 | 4.8 | 8.0 | 0.00 | 0.00 | 0.00 | 88 | 1021.0 |
| 20260905182904 | 27 | 129 | 4.8 | 4.8 | 0.00 | 0.00 | 0.00 | 88 | 1020.9 |
| 20260905182403 | 27 | 135 | 4.8 | 8.0 | 0.00 | 0.00 | 0.00 | 87 | 1020.9 |
| 20260905181904 | 28 | 127 | 3.2 | 8.0 | 0.00 | 0.00 | 0.00 | 87 | 1020.8 |
| 20260905181404 | 28 | 126 | 4.8 | 8.0 | 0.00 | 0.00 | 0.00 | 87 | 1020.8 |
| 20260905180904 | 28 | 129 | 3.2 | 8.0 | 0.00 | 0.00 | 0.00 | 87 | 1020.9 |
| 20260905180422 | 28 | 168 | 4.8 | 8.0 | 0.00 | 0.00 | 0.00 | 86 | 1020.8 |
| 20260905175922 | 28 | 105 | 4.8 | 8.0 | 0.00 | 0.00 | 0.00 | 86 | 1020.8 |
| 20260905174921 | 28 | 141 | 3.2 | 8.0 | 0.00 | 0.00 | 0.00 | 86 | 1020.8 |
| 20260905174422 | 28 | 125 | 6.4 | 9.7 | 0.00 | 0.00 | 0.00 | 86 | 1020.8 |
| 20260905173922 | 28 | 130 | 4.8 | 9.7 | 0.00 | 0.00 | 0.00 | 86 | 1020.8 |
| 20260905173422 | 28 | 136 | 8.0 | 12.9 | 0.00 | 0.00 | 0.00 | 86 | 1020.9 |
| 20260905172904 | 28 | 116 | 8.0 | 12.9 | 0.00 | 0.00 | 0.00 | 86 | 1020.8 |
| 20260905172404 | 28 | 116 | 6.4 | 11.3 | 0.00 | 0.00 | 0.00 | 85 | 1020.8 |
| 20260905171904 | 28 | 133 | 4.8 | 12.9 | 0.00 | 0.00 | 0.00 | 85 | 1020.8 |
| 20260905171404 | 28 | 176 | 4.8 | 9.7 | 0.00 | 0.00 | 0.00 | 84 | 1020.8 |
| 20260905165921 | 28 | 170 | 6.4 | 12.9 | 0.00 | 0.00 | 0.00 | 83 | 1020.8 |
| 20260905165420 | 28 | 145 | 4.8 | 11.3 | 0.00 | 0.00 | 0.00 | 83 | 1020.8 |
| 20260905164921 | 28 | 123 | 6.4 | 12.9 | 0.00 | 0.00 | 0.00 | 83 | 1020.8 |
| 20260905164421 | 28 | 140 | 8.0 | 11.3 | 0.00 | 0.00 | 0.00 | 83 | 1020.8 |
| 20260905163921 | 28 | 146 | 6.4 | 11.3 | 0.00 | 0.00 | 0.00 | 83 | 1020.8 |
| 20260905163422 | 28 | 135 | 8.0 | 12.9 | 0.00 | 0.00 | 0.00 | 83 | 1020.8 |
| 20260905162404 | 28 | 144 | 9.7 | 12.9 | 0.00 | 0.00 | 0.00 | 82 | 1020.7 |
| 20260905161903 | 28 | 142 | 4.8 | 9.7 | 0.00 | 0.00 | 0.00 | 83 | 1020.8 |
| 20260905161404 | 28 | 135 | 6.4 | 11.3 | 0.00 | 0.00 | 0.00 | 82 | 1020.9 |
| 20260905160904 | 28 | 113 | 4.8 | 9.7 | 0.00 | 0.00 | 0.00 | 83 | 1020.9 |
| 20260905160424 | 28 | 113 | 6.4 | 12.9 | 0.00 | 0.00 | 0.00 | 83 | 1020.8 |
| 20260905155922 | 28 | 145 | 6.4 | 11.3 | 0.00 | 0.00 | 0.00 | 83 | 1020.8 |
| 20260905155423 | 28 | 125 | 9.7 | 11.3 | 0.00 | 0.00 | 0.00 | 81 | 1020.8 |
| 20260905154922 | 28 | 114 | 6.4 | 12.9 | 0.00 | 0.00 | 0.00 | 82 | 1020.8 |
| 20260905154423 | 29 | 120 | 4.8 | 9.7 | 0.00 | 0.00 | 0.00 | 82 | 1020.8 |
| 20260905153923 | 29 | 152 | 6.4 | 11.3 | 0.00 | 0.00 | 0.00 | 81 | 1020.8 |
| 20260905153423 | 29 | 170 | 4.8 | 11.3 | 0.00 | 0.00 | 0.00 | 82 | 1020.8 |
| 20260905152404 | 30 | 171 | 4.8 | 11.3 | 0.00 | 0.00 | 0.00 | 80 | 1020.9 |
| 20260905151903 | 29 | 162 | 4.8 | 12.9 | 0.00 | 0.00 | 0.00 | 79 | 1020.9 |
| 20260905151405 | 30 | 125 | 8.0 | 12.9 | 0.00 | 0.00 | 0.00 | 78 | 1021.0 |
| 20260905150905 | 30 | 145 | 4.8 | 9.7 | 0.00 | 0.00 | 0.00 | 76 | 1021.1 |
| 20260905150422 | 30 | 134 | 6.4 | 11.3 | 0.00 | 0.00 | 0.00 | 76 | 1021.1 |
| 20260905145921 | 30 | 143 | 6.4 | 9.7 | 0.00 | 0.00 | 0.00 | 74 | 1021.1 |
| 20260905145421 | 30 | 123 | 6.4 | 11.3 | 0.00 | 0.00 | 0.00 | 74 | 1021.1 |
| 20260905144921 | 30 | 121 | 8.0 | 11.3 | 0.00 | 0.00 | 0.00 | 74 | 1021.2 |
| 20260905144421 | 30 | 152 | 4.8 | 9.7 | 0.00 | 0.00 | 0.00 | 74 | 1021.2 |
| 20260905143922 | 30 | 129 | 6.4 | 11.3 | 0.00 | 0.00 | 0.00 | 71 | 1021.2 |
| 20260905142904 | 31 | 120 | 4.8 | 9.7 | 0.00 | 0.00 | 0.00 | 70 | 1021.3 |
| 20260905142404 | 30 | 148 | 6.4 | 9.7 | 0.00 | 0.00 | 0.00 | 69 | 1021.4 |
| 20260905141904 | 31 | 132 | 4.8 | 9.7 | 0.00 | 0.00 | 0.00 | 69 | 1021.3 |
| 20260905141404 | 31 | 68 | 3.2 | 9.7 | 0.00 | 0.00 | 0.00 | 70 | 1021.4 |
| 20260905140904 | 31 | 113 | 4.8 | 11.3 | 0.00 | 0.00 | 0.00 | 69 | 1021.3 |
| 20260905135921 | 31 | 130 | 8.0 | 12.9 | 0.00 | 0.00 | 0.00 | 64 | 1021.3 |
| 20260905135421 | 31 | 103 | 4.8 | 9.7 | 0.00 | 0.00 | 0.00 | 65 | 1021.3 |
| 20260905134921 | 31 | 60 | 6.4 | 11.3 | 0.00 | 0.00 | 0.00 | 63 | 1021.4 |
| 20260905134420 | 31 | 105 | 8.0 | 9.7 | 0.00 | 0.00 | 0.00 | 65 | 1021.4 |
| 20260905133922 | 31 | 76 | 4.8 | 9.7 | 0.00 | 0.00 | 0.00 | 66 | 1021.4 |
| 20260905133422 | 31 | 89 | 6.4 | 9.7 | 0.00 | 0.00 | 0.00 | 66 | 1021.5 |
| 20260905132904 | 31 | 73 | 4.8 | 9.7 | 0.00 | 0.00 | 0.00 | 67 | 1021.5 |
| 20260905132404 | 30 | 81 | 8.0 | 11.3 | 0.00 | 0.00 | 0.00 | 69 | 1021.5 |
| 20260905131404 | 31 | 64 | 8.0 | 11.3 | 0.00 | 0.00 | 0.00 | 65 | 1021.6 |
| 20260905130904 | 31 | 99 | 6.4 | 9.7 | 0.00 | 0.00 | 0.00 | 64 | 1021.6 |
| 20260905130423 | 31 | 68 | 8.0 | 9.7 | 0.00 | 0.00 | 0.00 | 65 | 1021.6 |
| 20260905125923 | 30 | 96 | 8.0 | 9.7 | 0.00 | 0.00 | 0.00 | 64 | 1021.6 |
| 20260905125423 | 30 | 81 | 6.4 | 9.7 | 0.00 | 0.00 | 0.00 | 66 | 1021.6 |
| 20260905124923 | 30 | 65 | 6.4 | 9.7 | 0.00 | 0.00 | 0.00 | 65 | 1021.6 |
| 20260905124423 | 30 | 79 | 4.8 | 8.0 | 0.00 | 0.00 | 0.00 | 68 | 1021.6 |
| 20260905123924 | 30 | 105 | 4.8 | 11.3 | 0.00 | 0.00 | 0.00 | 68 | 1021.7 |
| 20260905123423 | 30 | 65 | 4.8 | 9.7 | 0.00 | 0.00 | 0.00 | 68 | 1021.7 |
| 20260905122904 | 30 | 85 | 4.8 | 8.0 | 0.00 | 0.00 | 0.00 | 68 | 1021.8 |
| 20260905122404 | 29 | 115 | 6.4 | 9.7 | 0.00 | 0.00 | 0.00 | 71 | 1021.8 |
| 20260905121904 | 30 | 126 | 8.0 | 11.3 | 0.00 | 0.00 | 0.00 | 69 | 1021.8 |
| 20260905121403 | 30 | 103 | 8.0 | 11.3 | 0.00 | 0.00 | 0.00 | 70 | 1021.8 |
| 20260905120421 | 30 | 97 | 4.8 | 9.7 | 0.00 | 0.00 | 0.00 | 67 | 1021.8 |
| 20260905115921 | 30 | 85 | 6.4 | 9.7 | 0.00 | 0.00 | 0.00 | 67 | 1021.8 |
| 20260905113922 | 30 | 113 | 6.4 | 9.7 | 0.00 | 0.00 | 0.00 | 70 | 1021.9 |
| 20260905113422 | 30 | 108 | 8.0 | 9.7 | 0.00 | 0.00 | 0.00 | 69 | 1021.9 |
| 20260905112904 | 29 | 106 | 4.8 | 9.7 | 0.00 | 0.00 | 0.00 | 72 | 1021.9 |
| 20260905112404 | 29 | 118 | 4.8 | 9.7 | 0.00 | 0.00 | 0.00 | 71 | 1021.8 |
| 20260905111903 | 29 | 93 | 6.4 | 9.7 | 0.00 | 0.00 | 0.00 | 73 | 1021.8 |
| 20260905111403 | 29 | 116 | 8.0 | 11.3 | 0.00 | 0.00 | 0.00 | 73 | 1021.7 |
| 20260905110904 | 28 | 115 | 6.4 | 9.7 | 0.00 | 0.00 | 0.00 | 73 | 1021.7 |
| 20260905110420 | 28 | 118 | 6.4 | 9.7 | 0.00 | 0.00 | 0.00 | 74 | 1021.7 |
| 20260905104920 | 29 | 108 | 4.8 | 11.3 | 0.00 | 0.00 | 0.00 | 74 | 1021.7 |
| 20260905104420 | 28 | 112 | 4.8 | 9.7 | 0.00 | 0.00 | 0.00 | 76 | 1021.7 |
| 20260905103920 | 28 | 84 | 4.8 | 9.7 | 0.00 | 0.00 | 0.00 | 76 | 1021.8 |
| 20260905103421 | 28 | 81 | 4.8 | 9.7 | 0.00 | 0.00 | 0.00 | 76 | 1021.8 |
| 20260905102903 | 28 | 93 | 4.8 | 9.7 | 0.00 | 0.00 | 0.00 | 75 | 1021.8 |
| 20260905101904 | 28 | 83 | 4.8 | 11.3 | 0.00 | 0.00 | 0.00 | 74 | 1021.7 |
| 20260905101404 | 28 | 104 | 4.8 | 11.3 | 0.00 | 0.00 | 0.00 | 73 | 1021.8 |
| 20260905100905 | 28 | 99 | 4.8 | 11.3 | 0.00 | 0.00 | 0.00 | 74 | 1021.8 |
| 20260905100422 | 28 | 85 | 6.4 | 9.7 | 0.00 | 0.00 | 0.00 | 75 | 1021.8 |
| 20260905095921 | 28 | 116 | 8.0 | 11.3 | 0.00 | 0.00 | 0.00 | 75 | 1021.8 |
| 20260905095421 | 28 | 114 | 4.8 | 9.7 | 0.00 | 0.00 | 0.00 | 74 | 1021.8 |
| 20260905094423 | 28 | 64 | 4.8 | 9.7 | 0.00 | 0.00 | 0.00 | 73 | 1021.8 |
| 20260905093423 | 28 | 99 | 4.8 | 8.0 | 0.00 | 0.00 | 0.00 | 72 | 1021.7 |
| 20260905092903 | 28 | 104 | 6.4 | 8.0 | 0.00 | 0.00 | 0.00 | 73 | 1021.7 |
| 20260905092405 | 28 | 53 | 6.4 | 8.0 | 0.00 | 0.00 | 0.00 | 73 | 1021.7 |
| 20260905091903 | 28 | 80 | 6.4 | 9.7 | 0.00 | 0.00 | 0.00 | 73 | 1021.7 |
| 20260905091403 | 28 | 90 | 4.8 | 9.7 | 0.00 | 0.00 | 0.00 | 73 | 1021.6 |
| 20260905090904 | 28 | 93 | 4.8 | 9.7 | 0.00 | 0.00 | 0.00 | 73 | 1021.6 |
| 20260905090421 | 28 | 82 | 6.4 | 9.7 | 0.00 | 0.00 | 0.00 | 75 | 1021.4 |
| 20260905085921 | 28 | 86 | 6.4 | 9.7 | 0.00 | 0.00 | 0.00 | 75 | 1021.4 |
| 20260905084921 | 28 | 94 | 8.0 | 9.7 | 0.00 | 0.00 | 0.00 | 76 | 1021.3 |
| 20260905084421 | 28 | 69 | 4.8 | 9.7 | 0.00 | 0.00 | 0.00 | 78 | 1021.3 |
| 20260905083921 | 28 | 60 | 4.8 | 8.0 | 0.00 | 0.00 | 0.00 | 77 | 1021.2 |
| 20260905083421 | 28 | 71 | 4.8 | 8.0 | 0.00 | 0.00 | 0.00 | 78 | 1021.2 |
| 20260905082403 | 28 | 72 | 6.4 | 9.7 | 0.00 | 0.00 | 0.00 | 73 | 1021.1 |
| 20260905081904 | 28 | 86 | 3.2 | 4.8 | 0.00 | 0.00 | 0.00 | 72 | 1021.0 |
| 20260905081404 | 28 | 88 | 4.8 | 8.0 | 0.00 | 0.00 | 0.00 | 71 | 1021.0 |
| 20260905080904 | 28 | 40 | 4.8 | 8.0 | 0.00 | 0.00 | 0.00 | 71 | 1021.0 |
| 20260905080420 | 28 | 86 | 3.2 | 4.8 | 0.00 | 0.00 | 0.00 | 69 | 1021.0 |
| 20260905075919 | 28 | 72 | 4.8 | 4.8 | 0.00 | 0.00 | 0.00 | 69 | 1020.9 |
| 20260905075419 | 28 | 85 | 4.8 | 8.0 | 0.00 | 0.00 | 0.00 | 67 | 1020.9 |
| 20260905074920 | 28 | 56 | 3.2 | 4.8 | 0.00 | 0.00 | 0.00 | 67 | 1020.8 |
| 20260905074420 | 28 | 61 | 1.6 | 3.2 | 0.00 | 0.00 | 0.00 | 66 | 1020.8 |
| 20260905073920 | 28 | 61 | 1.6 | 4.8 | 0.00 | 0.00 | 0.00 | 66 | 1020.7 |
| 20260905073421 | 28 | 91 | 3.2 | 4.8 | 0.00 | 0.00 | 0.00 | 65 | 1020.7 |
| 20260905072403 | 28 | 83 | 0.0 | 0.0 | 0.00 | 0.00 | 0.00 | 64 | 1020.6 |
| 20260905071904 | 28 | 321 | 0.0 | 1.6 | 0.00 | 0.00 | 0.00 | 65 | 1020.7 |
| 20260905070904 | 28 | 321 | 0.0 | 3.2 | 0.00 | 0.00 | 0.00 | 67 | 1020.6 |
| 20260905070421 | 27 | 307 | 1.6 | 4.8 | 0.00 | 0.00 | 0.00 | 68 | 1020.5 |
| 20260905064922 | 27 | 289 | 1.6 | 3.2 | 0.00 | 0.00 | 0.00 | 69 | 1020.3 |
| 20260905064422 | 27 | 295 | 1.6 | 4.8 | 0.00 | 0.00 | 0.00 | 70 | 1020.3 |
| 20260905063922 | 27 | 323 | 0.0 | 4.8 | 0.00 | 0.00 | 0.00 | 71 | 1020.2 |
| 20260905063422 | 26 | 303 | 3.2 | 4.8 | 0.00 | 0.00 | 0.00 | 72 | 1020.3 |
| 20260905062404 | 26 | 293 | 3.2 | 4.8 | 0.00 | 0.00 | 0.00 | 73 | 1020.1 |
| 20260905061903 | 26 | 320 | 1.6 | 4.8 | 0.00 | 0.00 | 0.00 | 73 | 1020.0 |
| 20260905061404 | 26 | 302 | 3.2 | 4.8 | 0.00 | 0.00 | 0.00 | 73 | 1020.0 |
| 20260905060904 | 26 | 321 | 3.2 | 4.8 | 0.00 | 0.00 | 0.00 | 74 | 1020.0 |
| 20260905060421 | 26 | 329 | 3.2 | 4.8 | 0.00 | 0.00 | 0.00 | 74 | 1020.0 |
| 20260905055921 | 26 | 324 | 3.2 | 4.8 | 0.00 | 0.00 | 0.00 | 75 | 1020.0 |
| 20260905055421 | 26 | 323 | 1.6 | 3.2 | 0.00 | 0.00 | 0.00 | 75 | 1019.9 |
| 20260905054921 | 26 | 287 | 1.6 | 3.2 | 0.00 | 0.00 | 0.00 | 75 | 1019.8 |
| 20260905054421 | 26 | 301 | 3.2 | 11.3 | 0.00 | 0.00 | 0.00 | 75 | 1019.9 |
| 20260905053921 | 26 | 258 | 4.8 | 11.3 | 0.00 | 0.00 | 0.00 | 76 | 1019.8 |
| 20260905053422 | 26 | 305 | 3.2 | 4.8 | 0.00 | 0.00 | 0.00 | 76 | 1019.7 |
| 20260905052403 | 26 | 290 | 1.6 | 4.8 | 0.00 | 0.00 | 0.00 | 76 | 1019.6 |
| 20260905051904 | 26 | 291 | 3.2 | 4.8 | 0.00 | 0.00 | 0.00 | 76 | 1019.6 |
| 20260905051404 | 26 | 267 | 1.6 | 4.8 | 0.00 | 0.00 | 0.00 | 76 | 1019.6 |
| 20260905050421 | 26 | 298 | 1.6 | 4.8 | 0.00 | 0.00 | 0.00 | 77 | 1019.6 |
| 20260905045922 | 26 | 300 | 4.8 | 4.8 | 0.00 | 0.00 | 0.00 | 77 | 1019.6 |
| 20260905045422 | 26 | 311 | 3.2 | 4.8 | 0.00 | 0.00 | 0.00 | 77 | 1019.6 |
| 20260905044922 | 26 | 299 | 3.2 | 4.8 | 0.00 | 0.00 | 0.00 | 78 | 1019.6 |
| 20260905044422 | 26 | 295 | 3.2 | 4.8 | 0.00 | 0.00 | 0.00 | 78 | 1019.5 |
| 20260905043923 | 26 | 275 | 3.2 | 4.8 | 0.00 | 0.00 | 0.00 | 78 | 1019.5 |
| 20260905043422 | 26 | 282 | 3.2 | 4.8 | 0.00 | 0.00 | 0.00 | 78 | 1019.4 |
| 20260905042404 | 26 | 294 | 3.2 | 4.8 | 0.00 | 0.00 | 0.00 | 78 | 1019.4 |
| 20260905041905 | 26 | 300 | 3.2 | 4.8 | 0.00 | 0.00 | 0.00 | 78 | 1019.3 |
| 20260905041404 | 26 | 308 | 4.8 | 8.0 | 0.00 | 0.00 | 0.00 | 78 | 1019.3 |
| 20260905040904 | 26 | 288 | 3.2 | 8.0 | 0.00 | 0.00 | 0.00 | 79 | 1019.4 |